South Point, Hawaii
Current Conditions -  °F | °C
As of 11:56 PM on Thursday 23 Oct 2014 (Local Time) from PHSF Reporting Station
Clear Clear  
Wind Chill: 50°   Ceiling: Unl
Heat Index: 50°   Visibility: 10mi
Dew Point: 41°   Wind: 3mph
Humidity: 70%   Direction: 330°NNW
Pressure: 30.36"   Gusts: NA
Location:  19°N, 155.67°W
Report Text: PHSF 240956Z AUTO 33003KT 10SM CLR 10/05 A3036 RMK AO2 SLP168 T01020050 402130093 $
Loading
Personal Weather Stations






























Interactive Weather Map
Tropical Storm Tracking
New forecast layout! Learn more

10-Day Weather Forecast

Advertisements
Track Severe Weather on mobile